sensor_id;sensor_type;location;lat;lon;timestamp;temperature;humidity
79014;DHT22;68419;44.714;37.756;2023-04-08T00:00:16;26.34;34.96
79014;DHT22;68419;44.714;37.756;2023-04-08T00:01:17;26.34;34.96
79014;DHT22;68419;44.714;37.756;2023-04-08T00:02:18;26.35;34.94
79014;DHT22;68419;44.714;37.756;2023-04-08T00:03:20;26.36;34.92
79014;DHT22;68419;44.714;37.756;2023-04-08T00:04:22;26.37;34.87
79014;DHT22;68419;44.714;37.756;2023-04-08T00:05:23;26.39;34.87
79014;DHT22;68419;44.714;37.756;2023-04-08T00:06:24;26.38;34.89
79014;DHT22;68419;44.714;37.756;2023-04-08T00:07:27;26.37;34.86
79014;DHT22;68419;44.714;37.756;2023-04-08T00:08:29;26.38;34.86
79014;DHT22;68419;44.714;37.756;2023-04-08T00:09:30;26.38;34.85
79014;DHT22;68419;44.714;37.756;2023-04-08T00:10:32;26.36;34.85
79014;DHT22;68419;44.714;37.756;2023-04-08T00:11:33;26.38;34.88
79014;DHT22;68419;44.714;37.756;2023-04-08T00:12:34;26.38;34.88
79014;DHT22;68419;44.714;37.756;2023-04-08T00:13:36;26.36;34.92
79014;DHT22;68419;44.714;37.756;2023-04-08T00:14:37;26.34;34.92
79014;DHT22;68419;44.714;37.756;2023-04-08T00:15:39;26.34;34.93
79014;DHT22;68419;44.714;37.756;2023-04-08T00:16:41;26.33;34.99
79014;DHT22;68419;44.714;37.756;2023-04-08T00:17:42;26.34;34.95
79014;DHT22;68419;44.714;37.756;2023-04-08T00:18:45;26.34;34.95
79014;DHT22;68419;44.714;37.756;2023-04-08T00:19:47;26.36;34.92
79014;DHT22;68419;44.714;37.756;2023-04-08T00:20:48;26.37;34.86
79014;DHT22;68419;44.714;37.756;2023-04-08T00:21:49;26.38;34.84
79014;DHT22;68419;44.714;37.756;2023-04-08T00:22:51;26.37;34.87
79014;DHT22;68419;44.714;37.756;2023-04-08T00:23:52;26.37;34.90
79014;DHT22;68419;44.714;37.756;2023-04-08T00:24:54;26.34;34.92
79014;DHT22;68419;44.714;37.756;2023-04-08T00:25:55;26.34;34.96
79014;DHT22;68419;44.714;37.756;2023-04-08T00:26:56;26.33;34.95
79014;DHT22;68419;44.714;37.756;2023-04-08T00:27:58;26.35;34.92
79014;DHT22;68419;44.714;37.756;2023-04-08T00:28:59;26.35;34.95
79014;DHT22;68419;44.714;37.756;2023-04-08T00:30:01;26.34;34.96
79014;DHT22;68419;44.714;37.756;2023-04-08T00:31:03;26.33;34.95
79014;DHT22;68419;44.714;37.756;2023-04-08T00:32:05;26.35;34.97
79014;DHT22;68419;44.714;37.756;2023-04-08T00:33:06;26.35;34.93
79014;DHT22;68419;44.714;37.756;2023-04-08T00:34:08;26.36;34.92
79014;DHT22;68419;44.714;37.756;2023-04-08T00:35:10;26.37;34.89
79014;DHT22;68419;44.714;37.756;2023-04-08T00:36:12;26.37;34.85
79014;DHT22;68419;44.714;37.756;2023-04-08T00:37:14;26.37;34.91
79014;DHT22;68419;44.714;37.756;2023-04-08T00:38:15;26.35;34.93
79014;DHT22;68419;44.714;37.756;2023-04-08T00:39:16;26.33;34.98
79014;DHT22;68419;44.714;37.756;2023-04-08T00:40:18;26.35;34.95
79014;DHT22;68419;44.714;37.756;2023-04-08T00:41:19;26.34;34.97
79014;DHT22;68419;44.714;37.756;2023-04-08T00:42:21;26.35;34.99
79014;DHT22;68419;44.714;37.756;2023-04-08T00:43:23;26.33;34.99
79014;DHT22;68419;44.714;37.756;2023-04-08T00:44:24;26.34;34.96
79014;DHT22;68419;44.714;37.756;2023-04-08T00:45:25;26.36;34.92
79014;DHT22;68419;44.714;37.756;2023-04-08T00:46:27;26.34;34.95
79014;DHT22;68419;44.714;37.756;2023-04-08T00:47:29;26.33;35.02
79014;DHT22;68419;44.714;37.756;2023-04-08T00:48:30;26.34;34.94
79014;DHT22;68419;44.714;37.756;2023-04-08T00:49:32;26.35;34.92
79014;DHT22;68419;44.714;37.756;2023-04-08T00:50:33;26.34;34.93
79014;DHT22;68419;44.714;37.756;2023-04-08T00:51:35;26.35;34.95
79014;DHT22;68419;44.714;37.756;2023-04-08T00:52:36;26.34;34.95
79014;DHT22;68419;44.714;37.756;2023-04-08T00:53:38;26.35;34.95
79014;DHT22;68419;44.714;37.756;2023-04-08T00:54:40;26.34;34.94
79014;DHT22;68419;44.714;37.756;2023-04-08T00:55:42;26.34;34.97
79014;DHT22;68419;44.714;37.756;2023-04-08T00:56:44;26.34;34.95
79014;DHT22;68419;44.714;37.756;2023-04-08T00:57:46;26.33;34.97
79014;DHT22;68419;44.714;37.756;2023-04-08T00:58:49;26.33;34.99
79014;DHT22;68419;44.714;37.756;2023-04-08T00:59:51;26.33;34.98
79014;DHT22;68419;44.714;37.756;2023-04-08T01:00:59;26.34;35.02
79014;DHT22;68419;44.714;37.756;2023-04-08T01:05:29;26.35;34.95
79014;DHT22;68419;44.714;37.756;2023-04-08T01:06:48;26.37;34.94
79014;DHT22;68419;44.714;37.756;2023-04-08T01:07:50;26.35;34.95
79014;DHT22;68419;44.714;37.756;2023-04-08T01:08:52;26.34;34.97
79014;DHT22;68419;44.714;37.756;2023-04-08T01:09:55;26.32;35.00
79014;DHT22;68419;44.714;37.756;2023-04-08T01:11:00;26.33;35.02
79014;DHT22;68419;44.714;37.756;2023-04-08T01:12:05;26.32;34.98
79014;DHT22;68419;44.714;37.756;2023-04-08T01:13:08;26.32;35.05
79014;DHT22;68419;44.714;37.756;2023-04-08T01:14:17;26.32;35.07
79014;DHT22;68419;44.714;37.756;2023-04-08T01:15:21;26.31;35.03
79014;DHT22;68419;44.714;37.756;2023-04-08T01:16:25;26.31;35.07
79014;DHT22;68419;44.714;37.756;2023-04-08T01:17:28;26.32;35.05
79014;DHT22;68419;44.714;37.756;2023-04-08T01:18:32;26.30;35.11
79014;DHT22;68419;44.714;37.756;2023-04-08T01:19:38;26.31;35.03
79014;DHT22;68419;44.714;37.756;2023-04-08T01:20:42;26.30;35.05
79014;DHT22;68419;44.714;37.756;2023-04-08T01:21:44;26.33;35.01
79014;DHT22;68419;44.714;37.756;2023-04-08T01:23:19;26.31;35.09
79014;DHT22;68419;44.714;37.756;2023-04-08T01:24:27;26.32;35.05
79014;DHT22;68419;44.714;37.756;2023-04-08T01:25:36;26.32;35.08
79014;DHT22;68419;44.714;37.756;2023-04-08T01:26:38;26.32;35.07
79014;DHT22;68419;44.714;37.756;2023-04-08T01:27:41;26.30;35.08
79014;DHT22;68419;44.714;37.756;2023-04-08T01:28:43;26.32;35.09
79014;DHT22;68419;44.714;37.756;2023-04-08T01:29:46;26.31;35.10
79014;DHT22;68419;44.714;37.756;2023-04-08T01:30:48;26.33;35.01
79014;DHT22;68419;44.714;37.756;2023-04-08T01:31:52;26.32;35.03
79014;DHT22;68419;44.714;37.756;2023-04-08T01:32:54;26.33;35.03
79014;DHT22;68419;44.714;37.756;2023-04-08T01:33:56;26.32;35.03
79014;DHT22;68419;44.714;37.756;2023-04-08T01:35:00;26.32;35.01
79014;DHT22;68419;44.714;37.756;2023-04-08T01:36:02;26.35;35.01
79014;DHT22;68419;44.714;37.756;2023-04-08T01:37:05;26.38;34.89
79014;DHT22;68419;44.714;37.756;2023-04-08T01:38:09;26.38;34.88
79014;DHT22;68419;44.714;37.756;2023-04-08T01:39:11;26.39;34.91
79014;DHT22;68419;44.714;37.756;2023-04-08T01:40:14;26.36;34.95
79014;DHT22;68419;44.714;37.756;2023-04-08T01:41:17;26.36;34.93
79014;DHT22;68419;44.714;37.756;2023-04-08T01:42:24;26.37;34.94
79014;DHT22;68419;44.714;37.756;2023-04-08T01:43:27;26.35;34.95
79014;DHT22;68419;44.714;37.756;2023-04-08T01:44:29;26.34;34.99
79014;DHT22;68419;44.714;37.756;2023-04-08T01:45:33;26.35;35.00
79014;DHT22;68419;44.714;37.756;2023-04-08T01:46:35;26.35;35.02
79014;DHT22;68419;44.714;37.756;2023-04-08T01:47:37;26.34;35.02
79014;DHT22;68419;44.714;37.756;2023-04-08T01:48:39;26.35;34.95
79014;DHT22;68419;44.714;37.756;2023-04-08T01:49:42;26.34;34.97
79014;DHT22;68419;44.714;37.756;2023-04-08T01:50:44;26.34;34.99
79014;DHT22;68419;44.714;37.756;2023-04-08T01:51:48;26.35;34.99
79014;DHT22;68419;44.714;37.756;2023-04-08T01:52:50;26.35;34.97
79014;DHT22;68419;44.714;37.756;2023-04-08T01:53:53;26.36;34.95
79014;DHT22;68419;44.714;37.756;2023-04-08T01:54:55;26.35;34.98
79014;DHT22;68419;44.714;37.756;2023-04-08T01:56:06;26.34;35.02
79014;DHT22;68419;44.714;37.756;2023-04-08T01:57:11;26.33;34.99
79014;DHT22;68419;44.714;37.756;2023-04-08T01:58:17;26.35;34.99
79014;DHT22;68419;44.714;37.756;2023-04-08T01:59:20;26.35;35.01
79014;DHT22;68419;44.714;37.756;2023-04-08T02:00:24;26.36;34.97
79014;DHT22;68419;44.714;37.756;2023-04-08T02:01:28;26.35;35.00
79014;DHT22;68419;44.714;37.756;2023-04-08T02:02:31;26.34;34.99
79014;DHT22;68419;44.714;37.756;2023-04-08T02:03:33;26.35;34.95
79014;DHT22;68419;44.714;37.756;2023-04-08T02:04:35;26.35;34.99
79014;DHT22;68419;44.714;37.756;2023-04-08T02:05:38;26.34;35.03
79014;DHT22;68419;44.714;37.756;2023-04-08T02:06:39;26.34;35.02
79014;DHT22;68419;44.714;37.756;2023-04-08T02:07:41;26.33;35.04
79014;DHT22;68419;44.714;37.756;2023-04-08T02:08:42;26.33;35.04
79014;DHT22;68419;44.714;37.756;2023-04-08T02:09:44;26.33;35.04
79014;DHT22;68419;44.714;37.756;2023-04-08T02:10:45;26.33;35.03
79014;DHT22;68419;44.714;37.756;2023-04-08T02:11:47;26.33;35.07
79014;DHT22;68419;44.714;37.756;2023-04-08T02:12:48;26.33;35.07
79014;DHT22;68419;44.714;37.756;2023-04-08T02:13:50;26.31;35.06
79014;DHT22;68419;44.714;37.756;2023-04-08T02:14:52;26.31;35.08
79014;DHT22;68419;44.714;37.756;2023-04-08T02:16:00;26.31;35.08
79014;DHT22;68419;44.714;37.756;2023-04-08T02:17:22;26.31;35.18
79014;DHT22;68419;44.714;37.756;2023-04-08T02:18:25;26.32;35.05
79014;DHT22;68419;44.714;37.756;2023-04-08T02:19:35;26.31;35.08
79014;DHT22;68419;44.714;37.756;2023-04-08T02:20:44;26.32;35.11
79014;DHT22;68419;44.714;37.756;2023-04-08T02:21:51;26.33;35.03
79014;DHT22;68419;44.714;37.756;2023-04-08T02:23:08;26.33;35.09
79014;DHT22;68419;44.714;37.756;2023-04-08T02:24:12;26.31;35.07
79014;DHT22;68419;44.714;37.756;2023-04-08T02:25:16;26.32;35.09
79014;DHT22;68419;44.714;37.756;2023-04-08T02:26:18;26.31;35.11
79014;DHT22;68419;44.714;37.756;2023-04-08T02:27:23;26.33;35.06
79014;DHT22;68419;44.714;37.756;2023-04-08T02:28:26;26.32;35.06
79014;DHT22;68419;44.714;37.756;2023-04-08T02:29:30;26.33;35.05
79014;DHT22;68419;44.714;37.756;2023-04-08T02:30:35;26.34;35.03
79014;DHT22;68419;44.714;37.756;2023-04-08T02:31:39;26.32;35.06
79014;DHT22;68419;44.714;37.756;2023-04-08T02:32:42;26.32;35.03
79014;DHT22;68419;44.714;37.756;2023-04-08T02:33:45;26.32;35.02
79014;DHT22;68419;44.714;37.756;2023-04-08T02:34:46;26.31;35.08
79014;DHT22;68419;44.714;37.756;2023-04-08T02:35:50;26.31;35.06
79014;DHT22;68419;44.714;37.756;2023-04-08T02:36:55;26.32;35.08
79014;DHT22;68419;44.714;37.756;2023-04-08T02:37:56;26.33;35.05
79014;DHT22;68419;44.714;37.756;2023-04-08T02:38:57;26.32;35.05
79014;DHT22;68419;44.714;37.756;2023-04-08T02:39:59;26.34;35.05
79014;DHT22;68419;44.714;37.756;2023-04-08T02:41:00;26.32;35.04
79014;DHT22;68419;44.714;37.756;2023-04-08T02:42:03;26.34;35.04
79014;DHT22;68419;44.714;37.756;2023-04-08T02:43:05;26.33;35.08
79014;DHT22;68419;44.714;37.756;2023-04-08T02:44:08;26.33;35.05
79014;DHT22;68419;44.714;37.756;2023-04-08T02:45:10;26.33;35.01
79014;DHT22;68419;44.714;37.756;2023-04-08T02:46:12;26.34;34.97
79014;DHT22;68419;44.714;37.756;2023-04-08T02:47:13;26.34;34.95
79014;DHT22;68419;44.714;37.756;2023-04-08T02:48:15;26.34;34.95
79014;DHT22;68419;44.714;37.756;2023-04-08T02:49:16;26.33;35.00
79014;DHT22;68419;44.714;37.756;2023-04-08T02:50:18;26.35;34.99
79014;DHT22;68419;44.714;37.756;2023-04-08T02:51:19;26.35;35.02
79014;DHT22;68419;44.714;37.756;2023-04-08T02:52:20;26.34;34.97
79014;DHT22;68419;44.714;37.756;2023-04-08T02:53:22;26.34;34.99
79014;DHT22;68419;44.714;37.756;2023-04-08T02:54:24;26.34;34.97
79014;DHT22;68419;44.714;37.756;2023-04-08T02:55:25;26.36;34.95
79014;DHT22;68419;44.714;37.756;2023-04-08T02:56:27;26.36;34.97
79014;DHT22;68419;44.714;37.756;2023-04-08T02:57:28;26.34;34.97
79014;DHT22;68419;44.714;37.756;2023-04-08T02:58:29;26.34;35.01
79014;DHT22;68419;44.714;37.756;2023-04-08T02:59:31;26.35;35.03
79014;DHT22;68419;44.714;37.756;2023-04-08T03:00:32;26.36;34.95
79014;DHT22;68419;44.714;37.756;2023-04-08T03:01:33;26.33;35.03
79014;DHT22;68419;44.714;37.756;2023-04-08T03:02:35;26.34;34.99
79014;DHT22;68419;44.714;37.756;2023-04-08T03:03:36;26.35;34.97
79014;DHT22;68419;44.714;37.756;2023-04-08T03:04:38;26.32;35.02
79014;DHT22;68419;44.714;37.756;2023-04-08T03:05:39;26.32;35.02
79014;DHT22;68419;44.714;37.756;2023-04-08T03:06:41;26.32;35.02
79014;DHT22;68419;44.714;37.756;2023-04-08T03:07:42;26.33;35.06
79014;DHT22;68419;44.714;37.756;2023-04-08T03:08:44;26.30;35.09
79014;DHT22;68419;44.714;37.756;2023-04-08T03:09:45;26.31;35.06
79014;DHT22;68419;44.714;37.756;2023-04-08T03:10:47;26.32;35.02
79014;DHT22;68419;44.714;37.756;2023-04-08T03:11:49;26.31;35.05
79014;DHT22;68419;44.714;37.756;2023-04-08T03:12:53;26.33;35.04
79014;DHT22;68419;44.714;37.756;2023-04-08T03:13:54;26.35;34.96
79014;DHT22;68419;44.714;37.756;2023-04-08T03:14:55;26.34;35.02
79014;DHT22;68419;44.714;37.756;2023-04-08T03:15:57;26.35;34.97
79014;DHT22;68419;44.714;37.756;2023-04-08T03:16:58;26.35;35.01
79014;DHT22;68419;44.714;37.756;2023-04-08T03:17:59;26.34;35.01
79014;DHT22;68419;44.714;37.756;2023-04-08T03:19:01;26.34;35.02
79014;DHT22;68419;44.714;37.756;2023-04-08T03:20:02;26.35;34.99
79014;DHT22;68419;44.714;37.756;2023-04-08T03:21:07;26.35;34.95
79014;DHT22;68419;44.714;37.756;2023-04-08T03:22:08;26.36;34.94
79014;DHT22;68419;44.714;37.756;2023-04-08T03:23:12;26.35;34.97
79014;DHT22;68419;44.714;37.756;2023-04-08T03:24:13;26.35;34.91
79014;DHT22;68419;44.714;37.756;2023-04-08T03:25:15;26.36;34.92
79014;DHT22;68419;44.714;37.756;2023-04-08T03:26:16;26.37;34.95
79014;DHT22;68419;44.714;37.756;2023-04-08T03:27:18;26.33;35.11
79014;DHT22;68419;44.714;37.756;2023-04-08T03:28:19;26.32;35.52
79014;DHT22;68419;44.714;37.756;2023-04-08T03:29:21;26.32;36.12
79014;DHT22;68419;44.714;37.756;2023-04-08T03:30:22;26.32;36.76
79014;DHT22;68419;44.714;37.756;2023-04-08T03:31:24;26.25;37.53
79014;DHT22;68419;44.714;37.756;2023-04-08T03:32:26;26.22;37.67
79014;DHT22;68419;44.714;37.756;2023-04-08T03:33:27;26.20;38.07
79014;DHT22;68419;44.714;37.756;2023-04-08T03:34:28;26.16;38.27
79014;DHT22;68419;44.714;37.756;2023-04-08T03:35:30;26.13;38.36
79014;DHT22;68419;44.714;37.756;2023-04-08T03:36:32;26.11;38.33
79014;DHT22;68419;44.714;37.756;2023-04-08T03:37:34;26.11;38.30
79014;DHT22;68419;44.714;37.756;2023-04-08T03:38:35;26.08;38.35
79014;DHT22;68419;44.714;37.756;2023-04-08T03:39:37;26.08;38.27
79014;DHT22;68419;44.714;37.756;2023-04-08T03:40:38;26.07;38.27
79014;DHT22;68419;44.714;37.756;2023-04-08T03:41:39;26.07;38.20
79014;DHT22;68419;44.714;37.756;2023-04-08T03:42:41;26.06;38.18
79014;DHT22;68419;44.714;37.756;2023-04-08T03:43:43;26.06;38.17
79014;DHT22;68419;44.714;37.756;2023-04-08T03:44:44;26.03;38.17
79014;DHT22;68419;44.714;37.756;2023-04-08T03:45:46;26.04;38.14
79014;DHT22;68419;44.714;37.756;2023-04-08T03:46:47;26.04;38.06
79014;DHT22;68419;44.714;37.756;2023-04-08T03:47:48;26.07;38.01
79014;DHT22;68419;44.714;37.756;2023-04-08T03:48:50;26.07;37.98
79014;DHT22;68419;44.714;37.756;2023-04-08T03:49:54;26.04;37.98
79014;DHT22;68419;44.714;37.756;2023-04-08T03:50:56;26.05;37.90
79014;DHT22;68419;44.714;37.756;2023-04-08T03:51:57;26.05;37.86
79014;DHT22;68419;44.714;37.756;2023-04-08T03:52:58;26.06;37.82
79014;DHT22;68419;44.714;37.756;2023-04-08T03:54:00;26.04;37.80
79014;DHT22;68419;44.714;37.756;2023-04-08T03:55:01;26.04;37.82
79014;DHT22;68419;44.714;37.756;2023-04-08T03:56:03;26.04;37.79
79014;DHT22;68419;44.714;37.756;2023-04-08T03:57:04;26.04;37.71
79014;DHT22;68419;44.714;37.756;2023-04-08T03:58:05;26.04;37.73
79014;DHT22;68419;44.714;37.756;2023-04-08T03:59:07;26.04;37.70
79014;DHT22;68419;44.714;37.756;2023-04-08T04:00:09;26.07;37.58
79014;DHT22;68419;44.714;37.756;2023-04-08T04:01:19;26.08;37.44
79014;DHT22;68419;44.714;37.756;2023-04-08T04:02:20;26.09;37.41
79014;DHT22;68419;44.714;37.756;2023-04-08T04:03:21;26.11;37.27
79014;DHT22;68419;44.714;37.756;2023-04-08T04:04:23;26.10;37.06
79014;DHT22;68419;44.714;37.756;2023-04-08T04:05:25;26.13;36.83
79014;DHT22;68419;44.714;37.756;2023-04-08T04:06:26;26.17;36.64
79014;DHT22;68419;44.714;37.756;2023-04-08T04:07:28;26.21;36.52
79014;DHT22;68419;44.714;37.756;2023-04-08T04:08:29;26.25;36.35
79014;DHT22;68419;44.714;37.756;2023-04-08T04:09:30;26.30;36.21
79014;DHT22;68419;44.714;37.756;2023-04-08T04:10:32;26.32;36.07
79014;DHT22;68419;44.714;37.756;2023-04-08T04:11:33;26.32;35.96
79014;DHT22;68419;44.714;37.756;2023-04-08T04:12:35;26.35;35.90
79014;DHT22;68419;44.714;37.756;2023-04-08T04:13:37;26.35;35.83
79014;DHT22;68419;44.714;37.756;2023-04-08T04:14:38;26.36;35.79
79014;DHT22;68419;44.714;37.756;2023-04-08T04:15:40;26.34;35.79
79014;DHT22;68419;44.714;37.756;2023-04-08T04:16:41;26.36;35.70
79014;DHT22;68419;44.714;37.756;2023-04-08T04:17:42;26.36;35.77
79014;DHT22;68419;44.714;37.756;2023-04-08T04:18:44;26.36;35.74
79014;DHT22;68419;44.714;37.756;2023-04-08T04:19:45;26.37;35.68
79014;DHT22;68419;44.714;37.756;2023-04-08T04:20:46;26.39;35.56
79014;DHT22;68419;44.714;37.756;2023-04-08T04:21:47;26.38;35.58
79014;DHT22;68419;44.714;37.756;2023-04-08T04:22:49;26.38;35.59
79014;DHT22;68419;44.714;37.756;2023-04-08T04:23:50;26.40;35.51
79014;DHT22;68419;44.714;37.756;2023-04-08T04:24:56;26.40;35.50
79014;DHT22;68419;44.714;37.756;2023-04-08T04:25:58;26.40;35.45
79014;DHT22;68419;44.714;37.756;2023-04-08T04:26:59;26.40;35.46
79014;DHT22;68419;44.714;37.756;2023-04-08T04:28:01;26.41;35.42
79014;DHT22;68419;44.714;37.756;2023-04-08T04:29:03;26.41;35.44
79014;DHT22;68419;44.714;37.756;2023-04-08T04:30:04;26.39;35.48
79014;DHT22;68419;44.714;37.756;2023-04-08T04:31:07;26.41;35.45
79014;DHT22;68419;44.714;37.756;2023-04-08T04:32:08;26.39;35.50
79014;DHT22;68419;44.714;37.756;2023-04-08T04:33:09;26.41;35.48
79014;DHT22;68419;44.714;37.756;2023-04-08T04:34:11;26.42;35.41
79014;DHT22;68419;44.714;37.756;2023-04-08T04:35:12;26.46;35.31
79014;DHT22;68419;44.714;37.756;2023-04-08T04:36:14;26.47;35.38
79014;DHT22;68419;44.714;37.756;2023-04-08T04:37:15;26.46;35.30
79014;DHT22;68419;44.714;37.756;2023-04-08T04:38:17;26.45;35.31
79014;DHT22;68419;44.714;37.756;2023-04-08T04:39:18;26.43;35.26
79014;DHT22;68419;44.714;37.756;2023-04-08T04:40:19;26.45;35.22
79014;DHT22;68419;44.714;37.756;2023-04-08T04:41:21;26.47;35.20
79014;DHT22;68419;44.714;37.756;2023-04-08T04:42:22;26.45;35.18
79014;DHT22;68419;44.714;37.756;2023-04-08T04:43:24;26.45;35.15
79014;DHT22;68419;44.714;37.756;2023-04-08T04:44:25;26.45;35.18
79014;DHT22;68419;44.714;37.756;2023-04-08T04:45:27;26.46;35.15
79014;DHT22;68419;44.714;37.756;2023-04-08T04:46:28;26.48;35.07
79014;DHT22;68419;44.714;37.756;2023-04-08T04:47:29;26.46;35.10
79014;DHT22;68419;44.714;37.756;2023-04-08T04:48:32;26.46;35.08
79014;DHT22;68419;44.714;37.756;2023-04-08T04:49:34;26.43;35.11
79014;DHT22;68419;44.714;37.756;2023-04-08T04:50:35;26.42;35.13
79014;DHT22;68419;44.714;37.756;2023-04-08T04:51:36;26.41;35.15
79014;DHT22;68419;44.714;37.756;2023-04-08T04:52:38;26.41;35.11
79014;DHT22;68419;44.714;37.756;2023-04-08T04:53:39;26.41;35.11
79014;DHT22;68419;44.714;37.756;2023-04-08T04:54:41;26.42;35.11
79014;DHT22;68419;44.714;37.756;2023-04-08T04:55:42;26.42;35.13
79014;DHT22;68419;44.714;37.756;2023-04-08T04:56:43;26.41;35.09
79014;DHT22;68419;44.714;37.756;2023-04-08T04:57:45;26.45;35.09
79014;DHT22;68419;44.714;37.756;2023-04-08T04:58:46;26.43;35.10
79014;DHT22;68419;44.714;37.756;2023-04-08T04:59:48;26.43;35.04
79014;DHT22;68419;44.714;37.756;2023-04-08T05:00:49;26.43;35.03
79014;DHT22;68419;44.714;37.756;2023-04-08T05:01:51;26.41;35.02
79014;DHT22;68419;44.714;37.756;2023-04-08T05:02:52;26.43;35.00
79014;DHT22;68419;44.714;37.756;2023-04-08T05:03:53;26.41;35.04
79014;DHT22;68419;44.714;37.756;2023-04-08T05:04:55;26.41;35.08
79014;DHT22;68419;44.714;37.756;2023-04-08T05:05:56;26.38;35.09
79014;DHT22;68419;44.714;37.756;2023-04-08T05:07:00;26.39;35.09
79014;DHT22;68419;44.714;37.756;2023-04-08T05:08:02;26.39;35.05
79014;DHT22;68419;44.714;37.756;2023-04-08T05:09:03;26.42;35.02
79014;DHT22;68419;44.714;37.756;2023-04-08T05:10:05;26.42;34.97
79014;DHT22;68419;44.714;37.756;2023-04-08T05:11:10;26.45;34.95
79014;DHT22;68419;44.714;37.756;2023-04-08T05:12:11;26.41;34.97
79014;DHT22;68419;44.714;37.756;2023-04-08T05:13:12;26.40;35.01
79014;DHT22;68419;44.714;37.756;2023-04-08T05:14:14;26.41;34.97
79014;DHT22;68419;44.714;37.756;2023-04-08T05:15:15;26.41;34.97
79014;DHT22;68419;44.714;37.756;2023-04-08T05:16:17;26.39;35.05
79014;DHT22;68419;44.714;37.756;2023-04-08T05:17:18;26.39;35.05
79014;DHT22;68419;44.714;37.756;2023-04-08T05:18:19;26.38;35.05
79014;DHT22;68419;44.714;37.756;2023-04-08T05:19:21;26.39;34.99
79014;DHT22;68419;44.714;37.756;2023-04-08T05:20:22;26.39;35.02
79014;DHT22;68419;44.714;37.756;2023-04-08T05:21:24;26.42;34.92
79014;DHT22;68419;44.714;37.756;2023-04-08T05:22:26;26.45;34.89
79014;DHT22;68419;44.714;37.756;2023-04-08T05:23:27;26.45;34.88
79014;DHT22;68419;44.714;37.756;2023-04-08T05:24:29;26.43;34.90
79014;DHT22;68419;44.714;37.756;2023-04-08T05:25:30;26.43;34.89
79014;DHT22;68419;44.714;37.756;2023-04-08T05:26:31;26.41;34.92
79014;DHT22;68419;44.714;37.756;2023-04-08T05:27:33;26.41;34.90
79014;DHT22;68419;44.714;37.756;2023-04-08T05:28:34;26.42;34.89
79014;DHT22;68419;44.714;37.756;2023-04-08T05:29:36;26.40;34.91
79014;DHT22;68419;44.714;37.756;2023-04-08T05:30:37;26.41;34.92
79014;DHT22;68419;44.714;37.756;2023-04-08T05:31:39;26.42;34.91
79014;DHT22;68419;44.714;37.756;2023-04-08T05:32:40;26.40;34.90
79014;DHT22;68419;44.714;37.756;2023-04-08T05:33:42;26.39;34.95
79014;DHT22;68419;44.714;37.756;2023-04-08T05:34:43;26.39;34.96
79014;DHT22;68419;44.714;37.756;2023-04-08T05:35:45;26.39;34.93
79014;DHT22;68419;44.714;37.756;2023-04-08T05:36:46;26.41;34.89
79014;DHT22;68419;44.714;37.756;2023-04-08T05:37:48;26.43;34.91
79014;DHT22;68419;44.714;37.756;2023-04-08T05:38:49;26.40;34.93
79014;DHT22;68419;44.714;37.756;2023-04-08T05:39:50;26.41;34.89
79014;DHT22;68419;44.714;37.756;2023-04-08T05:40:52;26.42;34.91
79014;DHT22;68419;44.714;37.756;2023-04-08T05:41:53;26.42;34.87
79014;DHT22;68419;44.714;37.756;2023-04-08T05:42:55;26.41;34.88
79014;DHT22;68419;44.714;37.756;2023-04-08T05:43:56;26.43;34.86
79014;DHT22;68419;44.714;37.756;2023-04-08T05:44:57;26.41;34.89
79014;DHT22;68419;44.714;37.756;2023-04-08T05:45:59;26.42;34.83
79014;DHT22;68419;44.714;37.756;2023-04-08T05:47:00;26.43;34.86
79014;DHT22;68419;44.714;37.756;2023-04-08T05:48:02;26.41;34.86
79014;DHT22;68419;44.714;37.756;2023-04-08T05:49:03;26.45;34.85
79014;DHT22;68419;44.714;37.756;2023-04-08T05:50:05;26.43;34.86
79014;DHT22;68419;44.714;37.756;2023-04-08T05:51:12;26.45;34.82
79014;DHT22;68419;44.714;37.756;2023-04-08T05:52:14;26.46;34.81
79014;DHT22;68419;44.714;37.756;2023-04-08T05:53:16;26.46;34.82
79014;DHT22;68419;44.714;37.756;2023-04-08T05:54:18;26.47;34.82
79014;DHT22;68419;44.714;37.756;2023-04-08T05:55:19;26.45;34.80
79014;DHT22;68419;44.714;37.756;2023-04-08T05:56:20;26.43;34.81
79014;DHT22;68419;44.714;37.756;2023-04-08T05:57:22;26.45;34.80
79014;DHT22;68419;44.714;37.756;2023-04-08T05:58:23;26.45;34.79
79014;DHT22;68419;44.714;37.756;2023-04-08T05:59:24;26.45;34.82
79014;DHT22;68419;44.714;37.756;2023-04-08T06:00:26;26.45;34.80
79014;DHT22;68419;44.714;37.756;2023-04-08T06:01:27;26.46;34.89
79014;DHT22;68419;44.714;37.756;2023-04-08T06:02:29;26.43;34.99
79014;DHT22;68419;44.714;37.756;2023-04-08T06:03:30;26.41;35.13
79014;DHT22;68419;44.714;37.756;2023-04-08T06:04:31;26.38;35.12
79014;DHT22;68419;44.714;37.756;2023-04-08T06:05:33;26.39;35.08
79014;DHT22;68419;44.714;37.756;2023-04-08T06:06:37;26.42;35.03
79014;DHT22;68419;44.714;37.756;2023-04-08T06:07:39;26.43;34.98
79014;DHT22;68419;44.714;37.756;2023-04-08T06:08:40;26.45;34.93
79014;DHT22;68419;44.714;37.756;2023-04-08T06:09:42;26.47;34.88
79014;DHT22;68419;44.714;37.756;2023-04-08T06:10:49;26.48;34.89
79014;DHT22;68419;44.714;37.756;2023-04-08T06:11:51;26.48;34.85
79014;DHT22;68419;44.714;37.756;2023-04-08T06:12:52;26.48;34.82
79014;DHT22;68419;44.714;37.756;2023-04-08T06:13:54;26.48;34.86
79014;DHT22;68419;44.714;37.756;2023-04-08T06:14:55;26.47;34.88
79014;DHT22;68419;44.714;37.756;2023-04-08T06:15:57;26.49;34.87
79014;DHT22;68419;44.714;37.756;2023-04-08T06:16:58;26.51;34.81
79014;DHT22;68419;44.714;37.756;2023-04-08T06:17:59;26.49;34.80
79014;DHT22;68419;44.714;37.756;2023-04-08T06:19:01;26.49;34.79
79014;DHT22;68419;44.714;37.756;2023-04-08T06:20:03;26.52;34.74
79014;DHT22;68419;44.714;37.756;2023-04-08T06:21:04;26.54;34.69
79014;DHT22;68419;44.714;37.756;2023-04-08T06:22:06;26.54;34.74
79014;DHT22;68419;44.714;37.756;2023-04-08T06:23:08;26.52;34.73
79014;DHT22;68419;44.714;37.756;2023-04-08T06:24:09;26.54;34.72
79014;DHT22;68419;44.714;37.756;2023-04-08T06:25:10;26.54;34.73
79014;DHT22;68419;44.714;37.756;2023-04-08T06:26:12;26.53;34.73
79014;DHT22;68419;44.714;37.756;2023-04-08T06:27:13;26.53;34.71
79014;DHT22;68419;44.714;37.756;2023-04-08T06:28:15;26.54;34.76
79014;DHT22;68419;44.714;37.756;2023-04-08T06:29:16;26.56;34.66
79014;DHT22;68419;44.714;37.756;2023-04-08T06:30:17;26.56;34.64